createdAt,value
2023-04-18T00:05:24.622Z,6.00
2023-04-18T00:10:51.427Z,5.95
2023-04-18T00:16:17.436Z,5.95
2023-04-18T00:21:41.432Z,5.98
2023-04-18T00:27:09.432Z,5.94
2023-04-18T00:32:35.518Z,5.93
2023-04-18T00:38:00.446Z,5.93
2023-04-18T00:43:28.426Z,5.90
2023-04-18T00:48:53.428Z,5.89
2023-04-18T00:54:19.447Z,5.88
2023-04-18T00:59:48.462Z,5.85
2023-04-18T01:05:13.477Z,5.89
2023-04-18T01:10:40.467Z,5.90
2023-04-18T01:16:09.432Z,5.89
2023-04-18T01:21:37.592Z,5.91
2023-04-18T01:27:06.458Z,5.88
2023-04-18T01:32:32.513Z,5.88
2023-04-18T01:37:56.467Z,5.85
2023-04-18T01:43:24.476Z,5.83
2023-04-18T01:48:48.475Z,5.84
2023-04-18T01:54:13.680Z,5.82
2023-04-18T01:59:40.457Z,5.85
2023-04-18T02:05:05.477Z,5.81
2023-04-18T02:10:30.478Z,5.80
2023-04-18T02:15:58.527Z,5.77
2023-04-18T02:21:23.469Z,5.76
2023-04-18T02:26:48.456Z,5.74
2023-04-18T02:32:15.476Z,5.71
2023-04-18T02:37:40.503Z,5.70
2023-04-18T02:43:04.508Z,5.73
2023-04-18T02:48:32.562Z,5.73
2023-04-18T02:54:01.460Z,5.77
2023-04-18T02:59:40.479Z,5.78
2023-04-18T03:05:26.506Z,5.77
2023-04-18T03:10:56.397Z,5.80
2023-04-18T03:16:23.550Z,5.80
2023-04-18T03:21:51.497Z,5.79
2023-04-18T03:27:16.506Z,5.81
2023-04-18T03:32:41.553Z,5.82
2023-04-18T03:38:08.537Z,5.83
2023-04-18T03:43:33.490Z,5.84
2023-04-18T03:48:57.523Z,5.89
2023-04-18T03:54:25.536Z,5.90
2023-04-18T03:59:50.572Z,5.92
2023-04-18T04:05:16.518Z,5.95
2023-04-18T04:10:44.521Z,5.98
2023-04-18T04:16:09.574Z,6.01
2023-04-18T04:21:35.527Z,6.02
2023-04-18T04:27:06.535Z,6.05
2023-04-18T04:32:35.616Z,6.09
2023-04-18T04:38:00.536Z,6.10
2023-04-18T04:43:35.528Z,6.14
2023-04-18T04:49:02.549Z,6.15
2023-04-18T04:54:26.536Z,6.17
2023-04-18T04:59:54.559Z,6.23
2023-04-18T05:05:19.573Z,6.26
2023-04-18T05:10:44.555Z,6.30
2023-04-18T05:16:12.570Z,6.29
2023-04-18T05:21:38.537Z,6.33
2023-04-18T05:27:10.585Z,6.32
2023-04-18T05:32:38.634Z,6.35
2023-04-18T05:38:02.557Z,6.35
2023-04-18T05:43:28.558Z,6.38
2023-04-18T05:48:55.563Z,6.39
2023-04-18T05:54:20.556Z,6.39
2023-04-18T05:59:44.590Z,6.43
2023-04-18T06:05:12.936Z,6.45
2023-04-18T06:10:38.977Z,6.44
2023-04-18T06:16:04.577Z,6.43
2023-04-18T06:21:32.568Z,6.42
2023-04-18T06:27:04.611Z,6.43
2023-04-18T06:32:29.635Z,6.44
2023-04-18T06:37:57.589Z,6.46
2023-04-18T06:43:22.590Z,6.52
2023-04-18T06:48:46.601Z,6.55
2023-04-18T06:54:14.738Z,6.63
2023-04-18T06:59:38.611Z,6.61
2023-04-18T07:05:03.589Z,6.70
2023-04-18T07:10:30.622Z,6.68
2023-04-18T07:15:55.630Z,6.72
2023-04-18T07:21:20.633Z,6.88
2023-04-18T07:26:48.609Z,7.05
2023-04-18T07:32:13.614Z,7.11
2023-04-18T07:37:38.651Z,7.28
2023-04-18T07:43:05.664Z,7.35
2023-04-18T07:48:31.644Z,7.39
2023-04-18T07:53:55.621Z,7.55
2023-04-18T07:59:23.626Z,7.61
2023-04-18T08:04:47.747Z,7.74
2023-04-18T08:10:13.624Z,8.02
2023-04-18T08:15:40.652Z,7.97
2023-04-18T08:21:05.675Z,7.85
2023-04-18T08:26:29.673Z,7.81
2023-04-18T08:31:57.738Z,7.88
2023-04-18T08:37:21.655Z,8.00
2023-04-18T08:42:46.653Z,8.11
2023-04-18T08:48:14.655Z,8.14
2023-04-18T08:53:39.660Z,8.15
2023-04-18T08:59:06.682Z,8.08
2023-04-18T09:04:46.626Z,8.01
2023-04-18T09:10:12.770Z,8.16
2023-04-18T09:15:38.661Z,8.24
2023-04-18T09:21:06.687Z,8.17
2023-04-18T09:26:48.660Z,8.20
2023-04-18T09:32:13.691Z,8.06
2023-04-18T09:37:41.693Z,8.01
2023-04-18T09:43:06.669Z,7.96
2023-04-18T09:48:30.788Z,7.94
2023-04-18T09:53:58.682Z,7.91
2023-04-18T09:59:25.712Z,7.92
2023-04-18T10:04:51.879Z,7.99
2023-04-18T10:10:18.715Z,8.16
2023-04-18T10:15:44.254Z,8.22
2023-04-18T10:21:17.689Z,8.24
2023-04-18T10:27:06.697Z,8.29
2023-04-18T10:32:32.748Z,8.22
2023-04-18T10:38:05.723Z,8.35
2023-04-18T10:43:33.709Z,8.40
2023-04-18T10:48:57.683Z,8.52
2023-04-18T10:54:30.758Z,8.57
2023-04-18T10:59:58.765Z,8.82
2023-04-18T11:05:28.716Z,9.05
2023-04-18T11:10:52.780Z,9.21
2023-04-18T11:16:35.854Z,9.12
2023-04-18T11:21:59.736Z,9.41
2023-04-18T11:27:30.736Z,9.42
2023-04-18T11:32:58.857Z,9.46
2023-04-18T11:38:24.744Z,9.58
2023-04-18T11:43:52.735Z,9.74
2023-04-18T11:49:19.762Z,9.70
2023-04-18T11:54:51.873Z,9.62
2023-04-18T12:00:18.750Z,9.62
2023-04-18T12:05:48.021Z,9.50
2023-04-18T12:11:12.739Z,9.44
2023-04-18T12:16:37.759Z,9.54
2023-04-18T12:22:16.786Z,9.48
2023-04-18T12:28:02.778Z,9.55
2023-04-18T12:33:27.780Z,9.75
2023-04-18T12:38:55.760Z,9.80
2023-04-18T12:44:20.748Z,9.90
2023-04-18T12:49:44.752Z,9.95
2023-04-18T12:55:12.805Z,10.00
2023-04-18T13:00:38.964Z,9.98
2023-04-18T13:06:04.355Z,9.84
2023-04-18T13:11:34.780Z,9.90
2023-04-18T13:16:59.855Z,9.91
2023-04-18T13:22:24.797Z,9.92
2023-04-18T13:27:59.793Z,9.81
2023-04-18T13:33:26.808Z,9.79
2023-04-18T13:38:52.011Z,9.75
2023-04-18T13:44:19.786Z,9.73
2023-04-18T13:49:44.804Z,9.65
2023-04-18T13:55:10.838Z,9.63
2023-04-18T14:00:37.820Z,9.56
2023-04-18T14:06:02.827Z,9.46
2023-04-18T14:11:26.826Z,9.43
2023-04-18T14:16:54.815Z,9.35
2023-04-18T14:22:18.818Z,9.26
2023-04-18T14:27:49.805Z,9.26
2023-04-18T14:33:18.873Z,9.18
2023-04-18T14:38:42.857Z,9.18
2023-04-18T14:44:07.823Z,9.14
2023-04-18T14:49:34.833Z,9.06
2023-04-18T14:54:59.822Z,9.03
2023-04-18T15:00:24.816Z,8.96
2023-04-18T15:05:54.827Z,8.84
2023-04-18T15:11:21.848Z,8.79
2023-04-18T15:16:47.943Z,8.72
2023-04-18T15:22:15.821Z,8.69
2023-04-18T15:27:46.834Z,8.64
2023-04-18T15:33:11.835Z,8.65
2023-04-18T15:38:39.856Z,8.68
2023-04-18T15:44:06.587Z,8.66
2023-04-18T15:49:32.865Z,8.60
2023-04-18T15:55:01.858Z,8.56
2023-04-18T16:00:28.860Z,8.56
2023-04-18T16:05:53.874Z,8.52
2023-04-18T16:11:20.885Z,8.50
2023-04-18T16:16:45.916Z,8.48
2023-04-18T16:22:09.912Z,8.47
2023-04-18T16:27:43.862Z,8.46
2023-04-18T16:33:08.994Z,8.47
2023-04-18T16:38:33.876Z,8.45
2023-04-18T16:44:01.876Z,8.43
2023-04-18T16:49:26.959Z,8.36
2023-04-18T16:54:52.721Z,8.37
2023-04-18T17:00:21.872Z,8.36
2023-04-18T17:05:46.906Z,8.35
2023-04-18T17:11:10.895Z,8.32
2023-04-18T17:16:39.060Z,8.32
2023-04-18T17:22:02.941Z,8.32
2023-04-18T17:27:33.922Z,8.32
2023-04-18T17:33:01.967Z,8.32
2023-04-18T17:38:25.890Z,8.31
2023-04-18T17:43:50.991Z,8.30
2023-04-18T17:49:18.905Z,8.26
2023-04-18T17:54:43.951Z,8.23
2023-04-18T18:00:12.924Z,8.18
2023-04-18T18:05:40.909Z,8.18
2023-04-18T18:11:04.912Z,8.16
2023-04-18T18:16:30.975Z,8.14
2023-04-18T18:21:57.963Z,8.12
2023-04-18T18:27:22.942Z,8.11
2023-04-18T18:32:47.019Z,8.11
2023-04-18T18:38:14.921Z,8.11
2023-04-18T18:43:38.946Z,8.12
2023-04-18T18:49:03.927Z,8.15
2023-04-18T18:54:32.992Z,8.14
2023-04-18T18:59:58.935Z,8.13
2023-04-18T19:05:23.977Z,8.16
2023-04-18T19:10:52.104Z,8.17
2023-04-18T19:16:17.283Z,8.16
2023-04-18T19:21:41.995Z,8.15
2023-04-18T19:27:16.002Z,8.12
2023-04-18T19:32:41.022Z,8.12
2023-04-18T19:38:07.996Z,8.08
2023-04-18T19:43:35.983Z,8.05
2023-04-18T19:48:59.949Z,8.06
2023-04-18T19:54:25.991Z,8.07
2023-04-18T19:59:53.005Z,8.09
2023-04-18T20:05:19.062Z,8.12
2023-04-18T20:10:44.009Z,8.17
2023-04-18T20:16:12.053Z,8.22
2023-04-18T20:21:35.966Z,8.26
2023-04-18T20:27:07.009Z,8.30
2023-04-18T20:32:35.042Z,8.30
2023-04-18T20:37:53.036Z,8.34
2023-04-18T20:43:17.034Z,8.30
2023-04-18T20:48:45.045Z,8.30
2023-04-18T20:54:09.017Z,8.31
2023-04-18T20:59:33.989Z,8.29
2023-04-18T21:05:01.021Z,8.30
2023-04-18T21:10:26.047Z,8.31
2023-04-18T21:15:50.084Z,8.30
2023-04-18T21:21:25.036Z,8.33
2023-04-18T21:26:56.016Z,8.33
2023-04-18T21:32:21.065Z,8.34
2023-04-18T21:37:48.021Z,8.35
2023-04-18T21:43:13.038Z,8.33
2023-04-18T21:48:37.046Z,8.32
2023-04-18T21:54:06.072Z,8.31
2023-04-18T21:59:30.055Z,8.31
2023-04-18T22:04:55.021Z,8.30
2023-04-18T22:10:24.028Z,8.31
2023-04-18T22:15:50.451Z,8.33
2023-04-18T22:21:16.050Z,8.30
2023-04-18T22:26:44.080Z,8.32
2023-04-18T22:32:08.037Z,8.30
2023-04-18T22:37:33.060Z,8.30
2023-04-18T22:43:01.072Z,8.33
2023-04-18T22:48:26.056Z,8.39
2023-04-18T22:53:50.065Z,8.46
2023-04-18T22:59:18.135Z,8.51
2023-04-18T23:04:43.131Z,8.52
2023-04-18T23:10:08.083Z,8.56
2023-04-18T23:15:35.192Z,8.56
2023-04-18T23:21:00.148Z,8.55
2023-04-18T23:26:31.101Z,8.52
2023-04-18T23:31:59.341Z,8.52
2023-04-18T23:37:24.075Z,8.49
2023-04-18T23:42:49.093Z,8.44
2023-04-18T23:48:16.092Z,8.47
2023-04-18T23:53:41.098Z,8.40
2023-04-18T23:59:06.117Z,8.33
